sensor_id;sensor_type;location;lat;lon;timestamp;temperature;humidity
2042;DHT22;1026;51.460;7.252;2022-09-13T00:01:37;18.70;81.50
2042;DHT22;1026;51.460;7.252;2022-09-13T00:04:02;18.70;81.50
2042;DHT22;1026;51.460;7.252;2022-09-13T00:06:29;18.70;81.50
2042;DHT22;1026;51.460;7.252;2022-09-13T00:08:54;18.60;81.20
2042;DHT22;1026;51.460;7.252;2022-09-13T00:11:24;18.60;81.40
2042;DHT22;1026;51.460;7.252;2022-09-13T00:13:51;18.60;81.40
2042;DHT22;1026;51.460;7.252;2022-09-13T00:16:19;18.60;81.50
2042;DHT22;1026;51.460;7.252;2022-09-13T00:18:45;18.60;81.60
2042;DHT22;1026;51.460;7.252;2022-09-13T00:21:14;18.60;81.70
2042;DHT22;1026;51.460;7.252;2022-09-13T00:23:43;18.60;81.60
2042;DHT22;1026;51.460;7.252;2022-09-13T00:26:12;18.60;81.70
2042;DHT22;1026;51.460;7.252;2022-09-13T00:28:38;18.60;81.70
2042;DHT22;1026;51.460;7.252;2022-09-13T00:31:07;18.60;81.70
2042;DHT22;1026;51.460;7.252;2022-09-13T00:33:33;18.60;82.40
2042;DHT22;1026;51.460;7.252;2022-09-13T00:36:05;18.60;81.70
2042;DHT22;1026;51.460;7.252;2022-09-13T00:38:30;18.60;81.70
2042;DHT22;1026;51.460;7.252;2022-09-13T00:40:56;18.60;81.70
2042;DHT22;1026;51.460;7.252;2022-09-13T00:43:41;18.60;81.70
2042;DHT22;1026;51.460;7.252;2022-09-13T00:46:07;18.60;81.70
2042;DHT22;1026;51.460;7.252;2022-09-13T00:48:35;18.60;81.70
2042;DHT22;1026;51.460;7.252;2022-09-13T00:51:01;18.50;81.60
2042;DHT22;1026;51.460;7.252;2022-09-13T00:53:31;18.60;81.80
2042;DHT22;1026;51.460;7.252;2022-09-13T00:55:59;18.50;81.70
2042;DHT22;1026;51.460;7.252;2022-09-13T00:58:35;18.50;81.60
2042;DHT22;1026;51.460;7.252;2022-09-13T01:01:03;18.50;81.70
2042;DHT22;1026;51.460;7.252;2022-09-13T01:03:32;18.50;81.70
2042;DHT22;1026;51.460;7.252;2022-09-13T01:06:03;18.50;81.70
2042;DHT22;1026;51.460;7.252;2022-09-13T01:08:30;18.50;81.70
2042;DHT22;1026;51.460;7.252;2022-09-13T01:10:58;18.50;81.80
2042;DHT22;1026;51.460;7.252;2022-09-13T01:13:28;18.50;81.70
2042;DHT22;1026;51.460;7.252;2022-09-13T01:15:57;18.40;81.60
2042;DHT22;1026;51.460;7.252;2022-09-13T01:18:23;18.50;81.70
2042;DHT22;1026;51.460;7.252;2022-09-13T01:23:58;18.50;81.60
2042;DHT22;1026;51.460;7.252;2022-09-13T01:37:53;18.50;81.70
2042;DHT22;1026;51.460;7.252;2022-09-13T01:43:38;18.40;81.60
2042;DHT22;1026;51.460;7.252;2022-09-13T01:46:12;18.50;81.80
2042;DHT22;1026;51.460;7.252;2022-09-13T01:48:53;18.50;81.80
2042;DHT22;1026;51.460;7.252;2022-09-13T01:54:20;18.40;81.60
2042;DHT22;1026;51.460;7.252;2022-09-13T01:57:11;18.40;81.70
2042;DHT22;1026;51.460;7.252;2022-09-13T02:08:01;18.50;81.80
2042;DHT22;1026;51.460;7.252;2022-09-13T02:10:33;18.50;81.70
2042;DHT22;1026;51.460;7.252;2022-09-13T02:13:01;18.50;81.60
2042;DHT22;1026;51.460;7.252;2022-09-13T02:15:35;18.50;81.60
2042;DHT22;1026;51.460;7.252;2022-09-13T02:18:08;18.40;81.60
2042;DHT22;1026;51.460;7.252;2022-09-13T02:20:39;18.40;81.60
2042;DHT22;1026;51.460;7.252;2022-09-13T02:23:12;18.40;81.60
2042;DHT22;1026;51.460;7.252;2022-09-13T02:25:40;18.30;81.50
2042;DHT22;1026;51.460;7.252;2022-09-13T02:28:09;18.40;81.60
2042;DHT22;1026;51.460;7.252;2022-09-13T02:30:38;18.40;81.60
2042;DHT22;1026;51.460;7.252;2022-09-13T02:33:13;18.40;81.60
2042;DHT22;1026;51.460;7.252;2022-09-13T02:35:48;18.40;81.60
2042;DHT22;1026;51.460;7.252;2022-09-13T02:38:25;18.40;81.60
2042;DHT22;1026;51.460;7.252;2022-09-13T02:40:57;18.40;81.60
2042;DHT22;1026;51.460;7.252;2022-09-13T02:43:34;18.40;81.60
2042;DHT22;1026;51.460;7.252;2022-09-13T02:49:10;18.40;81.60
2042;DHT22;1026;51.460;7.252;2022-09-13T02:51:54;18.30;81.50
2042;DHT22;1026;51.460;7.252;2022-09-13T02:54:38;18.40;81.60
2042;DHT22;1026;51.460;7.252;2022-09-13T02:57:26;18.40;81.60
2042;DHT22;1026;51.460;7.252;2022-09-13T02:59:55;18.40;81.60
2042;DHT22;1026;51.460;7.252;2022-09-13T03:02:24;18.40;81.60
2042;DHT22;1026;51.460;7.252;2022-09-13T03:04:51;18.40;81.60
2042;DHT22;1026;51.460;7.252;2022-09-13T03:07:17;18.40;81.60
2042;DHT22;1026;51.460;7.252;2022-09-13T03:09:49;18.40;81.60
2042;DHT22;1026;51.460;7.252;2022-09-13T03:20:45;18.40;81.60
2042;DHT22;1026;51.460;7.252;2022-09-13T03:34:02;18.40;81.50
2042;DHT22;1026;51.460;7.252;2022-09-13T03:36:36;18.40;81.50
2042;DHT22;1026;51.460;7.252;2022-09-13T03:41:42;18.40;81.50
2042;DHT22;1026;51.460;7.252;2022-09-13T03:44:12;18.40;81.50
2042;DHT22;1026;51.460;7.252;2022-09-13T03:46:43;18.40;81.60
2042;DHT22;1026;51.460;7.252;2022-09-13T03:49:13;18.30;81.40
2042;DHT22;1026;51.460;7.252;2022-09-13T03:51:41;18.40;81.50
2042;DHT22;1026;51.460;7.252;2022-09-13T03:54:13;18.40;81.50
2042;DHT22;1026;51.460;7.252;2022-09-13T03:56:39;18.40;81.50
2042;DHT22;1026;51.460;7.252;2022-09-13T03:59:05;18.40;81.70
2042;DHT22;1026;51.460;7.252;2022-09-13T04:01:31;18.30;81.50
2042;DHT22;1026;51.460;7.252;2022-09-13T04:03:56;18.30;81.40
2042;DHT22;1026;51.460;7.252;2022-09-13T04:06:22;18.30;81.50
2042;DHT22;1026;51.460;7.252;2022-09-13T04:08:47;18.30;81.40
2042;DHT22;1026;51.460;7.252;2022-09-13T04:11:13;18.30;81.50
2042;DHT22;1026;51.460;7.252;2022-09-13T04:13:38;18.40;81.70
2042;DHT22;1026;51.460;7.252;2022-09-13T04:16:06;18.30;81.40
2042;DHT22;1026;51.460;7.252;2022-09-13T04:18:32;18.30;81.50
2042;DHT22;1026;51.460;7.252;2022-09-13T04:20:59;18.40;82.30
2042;DHT22;1026;51.460;7.252;2022-09-13T04:23:27;18.40;81.60
2042;DHT22;1026;51.460;7.252;2022-09-13T04:25:53;18.40;81.60
2042;DHT22;1026;51.460;7.252;2022-09-13T04:28:20;18.40;81.60
2042;DHT22;1026;51.460;7.252;2022-09-13T04:30:47;18.30;81.50
2042;DHT22;1026;51.460;7.252;2022-09-13T04:33:14;18.40;81.60
2042;DHT22;1026;51.460;7.252;2022-09-13T04:35:40;18.40;81.50
2042;DHT22;1026;51.460;7.252;2022-09-13T04:38:06;18.30;81.50
2042;DHT22;1026;51.460;7.252;2022-09-13T04:40:32;18.30;81.50
2042;DHT22;1026;51.460;7.252;2022-09-13T04:43:00;18.30;81.50
2042;DHT22;1026;51.460;7.252;2022-09-13T04:45:25;18.30;81.50
2042;DHT22;1026;51.460;7.252;2022-09-13T04:47:52;18.30;81.50
2042;DHT22;1026;51.460;7.252;2022-09-13T04:50:19;18.30;81.60
2042;DHT22;1026;51.460;7.252;2022-09-13T04:52:46;18.30;81.60
2042;DHT22;1026;51.460;7.252;2022-09-13T04:55:12;18.30;81.50
2042;DHT22;1026;51.460;7.252;2022-09-13T04:57:39;18.30;81.50
2042;DHT22;1026;51.460;7.252;2022-09-13T05:00:05;18.30;81.50
2042;DHT22;1026;51.460;7.252;2022-09-13T05:02:31;18.30;81.50
2042;DHT22;1026;51.460;7.252;2022-09-13T05:04:57;18.20;81.50
2042;DHT22;1026;51.460;7.252;2022-09-13T05:07:22;18.30;81.50
2042;DHT22;1026;51.460;7.252;2022-09-13T05:09:48;18.30;81.50
2042;DHT22;1026;51.460;7.252;2022-09-13T05:12:14;18.30;81.60
2042;DHT22;1026;51.460;7.252;2022-09-13T05:14:40;18.30;81.60
2042;DHT22;1026;51.460;7.252;2022-09-13T05:17:05;18.30;81.60
2042;DHT22;1026;51.460;7.252;2022-09-13T05:19:31;18.30;81.60
2042;DHT22;1026;51.460;7.252;2022-09-13T05:21:57;18.20;81.50
2042;DHT22;1026;51.460;7.252;2022-09-13T05:24:22;18.30;81.60
2042;DHT22;1026;51.460;7.252;2022-09-13T05:26:48;18.30;81.60
2042;DHT22;1026;51.460;7.252;2022-09-13T05:29:13;18.30;81.60
2042;DHT22;1026;51.460;7.252;2022-09-13T05:31:41;18.20;81.50
2042;DHT22;1026;51.460;7.252;2022-09-13T05:34:09;18.30;81.60
2042;DHT22;1026;51.460;7.252;2022-09-13T05:36:35;18.10;81.40
2042;DHT22;1026;51.460;7.252;2022-09-13T05:39:02;18.30;81.70
2042;DHT22;1026;51.460;7.252;2022-09-13T05:41:28;18.30;81.60
2042;DHT22;1026;51.460;7.252;2022-09-13T05:43:53;18.30;81.70
2042;DHT22;1026;51.460;7.252;2022-09-13T05:46:20;18.20;81.50
2042;DHT22;1026;51.460;7.252;2022-09-13T05:48:47;18.20;81.50
2042;DHT22;1026;51.460;7.252;2022-09-13T05:51:16;18.30;81.70
2042;DHT22;1026;51.460;7.252;2022-09-13T05:53:46;18.20;81.60
2042;DHT22;1026;51.460;7.252;2022-09-13T05:56:14;18.30;81.80
2042;DHT22;1026;51.460;7.252;2022-09-13T05:58:42;18.30;81.80
2042;DHT22;1026;51.460;7.252;2022-09-13T06:01:08;18.30;81.90
2042;DHT22;1026;51.460;7.252;2022-09-13T06:03:34;18.30;81.80
2042;DHT22;1026;51.460;7.252;2022-09-13T06:06:01;18.20;81.70
2042;DHT22;1026;51.460;7.252;2022-09-13T06:08:28;18.20;81.70
2042;DHT22;1026;51.460;7.252;2022-09-13T06:13:20;18.20;81.70
2042;DHT22;1026;51.460;7.252;2022-09-13T06:15:46;18.20;81.70
2042;DHT22;1026;51.460;7.252;2022-09-13T06:18:12;18.20;81.70
2042;DHT22;1026;51.460;7.252;2022-09-13T06:20:37;18.20;81.70
2042;DHT22;1026;51.460;7.252;2022-09-13T06:23:03;18.20;81.70
2042;DHT22;1026;51.460;7.252;2022-09-13T06:25:29;18.20;81.70
2042;DHT22;1026;51.460;7.252;2022-09-13T06:27:55;18.20;81.70
2042;DHT22;1026;51.460;7.252;2022-09-13T06:30:21;18.20;81.70
2042;DHT22;1026;51.460;7.252;2022-09-13T06:32:47;18.20;81.70
2042;DHT22;1026;51.460;7.252;2022-09-13T06:35:12;18.20;81.70
2042;DHT22;1026;51.460;7.252;2022-09-13T06:37:38;18.20;81.70
2042;DHT22;1026;51.460;7.252;2022-09-13T06:40:04;18.20;81.60
2042;DHT22;1026;51.460;7.252;2022-09-13T06:42:33;18.20;81.70
2042;DHT22;1026;51.460;7.252;2022-09-13T06:44:59;18.20;81.70
2042;DHT22;1026;51.460;7.252;2022-09-13T06:47:25;18.20;81.70
2042;DHT22;1026;51.460;7.252;2022-09-13T06:49:50;18.20;81.70
2042;DHT22;1026;51.460;7.252;2022-09-13T06:52:16;18.20;81.70
2042;DHT22;1026;51.460;7.252;2022-09-13T06:54:42;18.20;81.70
2042;DHT22;1026;51.460;7.252;2022-09-13T06:57:08;18.20;81.70
2042;DHT22;1026;51.460;7.252;2022-09-13T06:59:34;18.30;81.80
2042;DHT22;1026;51.460;7.252;2022-09-13T07:02:00;18.30;81.70
2042;DHT22;1026;51.460;7.252;2022-09-13T07:04:25;18.20;81.60
2042;DHT22;1026;51.460;7.252;2022-09-13T07:06:56;18.30;81.60
2042;DHT22;1026;51.460;7.252;2022-09-13T07:09:22;18.30;81.70
2042;DHT22;1026;51.460;7.252;2022-09-13T07:11:50;18.30;81.60
2042;DHT22;1026;51.460;7.252;2022-09-13T07:14:18;18.30;81.80
2042;DHT22;1026;51.460;7.252;2022-09-13T07:16:44;18.30;81.70
2042;DHT22;1026;51.460;7.252;2022-09-13T07:19:13;18.30;81.60
2042;DHT22;1026;51.460;7.252;2022-09-13T07:21:40;18.30;81.60
2042;DHT22;1026;51.460;7.252;2022-09-13T07:24:06;18.30;81.60
2042;DHT22;1026;51.460;7.252;2022-09-13T07:26:32;18.30;81.60
2042;DHT22;1026;51.460;7.252;2022-09-13T07:28:59;18.30;81.60
2042;DHT22;1026;51.460;7.252;2022-09-13T07:31:29;18.30;81.50
2042;DHT22;1026;51.460;7.252;2022-09-13T07:33:57;18.30;81.50
2042;DHT22;1026;51.460;7.252;2022-09-13T07:36:24;18.30;81.60
2042;DHT22;1026;51.460;7.252;2022-09-13T07:38:50;18.30;81.50
2042;DHT22;1026;51.460;7.252;2022-09-13T07:41:18;18.30;81.50
2042;DHT22;1026;51.460;7.252;2022-09-13T07:43:44;18.30;81.50
2042;DHT22;1026;51.460;7.252;2022-09-13T07:46:12;18.20;81.40
2042;DHT22;1026;51.460;7.252;2022-09-13T07:48:40;18.30;81.50
2042;DHT22;1026;51.460;7.252;2022-09-13T07:51:08;18.20;81.40
2042;DHT22;1026;51.460;7.252;2022-09-13T07:53:35;18.30;81.50
2042;DHT22;1026;51.460;7.252;2022-09-13T07:56:11;18.40;81.60
2042;DHT22;1026;51.460;7.252;2022-09-13T07:58:38;18.40;81.50
2042;DHT22;1026;51.460;7.252;2022-09-13T08:01:06;18.30;81.40
2042;DHT22;1026;51.460;7.252;2022-09-13T08:03:33;18.40;81.40
2042;DHT22;1026;51.460;7.252;2022-09-13T08:05:59;18.40;82.20
2042;DHT22;1026;51.460;7.252;2022-09-13T08:08:25;18.40;81.40
2042;DHT22;1026;51.460;7.252;2022-09-13T08:10:51;18.40;81.30
2042;DHT22;1026;51.460;7.252;2022-09-13T08:13:17;18.40;81.40
2042;DHT22;1026;51.460;7.252;2022-09-13T08:15:42;18.40;81.40
2042;DHT22;1026;51.460;7.252;2022-09-13T08:18:09;18.40;81.30
2042;DHT22;1026;51.460;7.252;2022-09-13T08:20:36;18.40;81.40
2042;DHT22;1026;51.460;7.252;2022-09-13T08:23:03;18.50;81.70
2042;DHT22;1026;51.460;7.252;2022-09-13T08:25:32;18.50;81.40
2042;DHT22;1026;51.460;7.252;2022-09-13T08:27:59;18.50;81.40
2042;DHT22;1026;51.460;7.252;2022-09-13T08:30:26;18.50;81.40
2042;DHT22;1026;51.460;7.252;2022-09-13T08:32:58;18.50;81.40
2042;DHT22;1026;51.460;7.252;2022-09-13T08:35:24;18.50;81.20
2042;DHT22;1026;51.460;7.252;2022-09-13T08:37:50;18.50;82.20
2042;DHT22;1026;51.460;7.252;2022-09-13T08:40:16;18.40;81.30
2042;DHT22;1026;51.460;7.252;2022-09-13T08:45:23;18.60;81.70
2042;DHT22;1026;51.460;7.252;2022-09-13T08:47:57;18.60;81.40
2042;DHT22;1026;51.460;7.252;2022-09-13T08:50:32;18.60;81.60
2042;DHT22;1026;51.460;7.252;2022-09-13T08:56:05;18.60;81.80
2042;DHT22;1026;51.460;7.252;2022-09-13T08:58:54;18.60;81.80
2042;DHT22;1026;51.460;7.252;2022-09-13T09:04:11;18.60;82.00
2042;DHT22;1026;51.460;7.252;2022-09-13T09:06:40;18.70;82.10
2042;DHT22;1026;51.460;7.252;2022-09-13T09:09:12;18.70;81.90
2042;DHT22;1026;51.460;7.252;2022-09-13T09:12:02;18.70;81.90
2042;DHT22;1026;51.460;7.252;2022-09-13T09:14:34;18.70;81.90
2042;DHT22;1026;51.460;7.252;2022-09-13T09:17:07;18.80;82.30
2042;DHT22;1026;51.460;7.252;2022-09-13T09:19:39;18.80;82.00
2042;DHT22;1026;51.460;7.252;2022-09-13T09:22:19;18.80;83.90
2042;DHT22;1026;51.460;7.252;2022-09-13T09:24:51;18.90;83.60
2042;DHT22;1026;51.460;7.252;2022-09-13T09:27:19;18.90;83.70
2042;DHT22;1026;51.460;7.252;2022-09-13T09:29:49;18.90;83.50
2042;DHT22;1026;51.460;7.252;2022-09-13T09:32:30;18.90;83.60
2042;DHT22;1026;51.460;7.252;2022-09-13T09:37:50;18.90;83.30
2042;DHT22;1026;51.460;7.252;2022-09-13T09:40:20;18.90;83.30
2042;DHT22;1026;51.460;7.252;2022-09-13T09:42:47;18.90;82.90
2042;DHT22;1026;51.460;7.252;2022-09-13T09:45:28;19.00;83.40
2042;DHT22;1026;51.460;7.252;2022-09-13T09:47:55;19.00;82.90
2042;DHT22;1026;51.460;7.252;2022-09-13T09:50:26;19.00;83.10
2042;DHT22;1026;51.460;7.252;2022-09-13T09:53:17;19.00;82.40
2042;DHT22;1026;51.460;7.252;2022-09-13T09:55:56;19.00;83.00
2042;DHT22;1026;51.460;7.252;2022-09-13T09:58:40;19.00;82.70
2042;DHT22;1026;51.460;7.252;2022-09-13T10:06:39;19.10;83.00
2042;DHT22;1026;51.460;7.252;2022-09-13T10:09:15;19.10;82.20
2042;DHT22;1026;51.460;7.252;2022-09-13T10:11:51;19.20;82.10
2042;DHT22;1026;51.460;7.252;2022-09-13T10:17:14;19.20;82.50
2042;DHT22;1026;51.460;7.252;2022-09-13T10:19:51;19.30;82.10
2042;DHT22;1026;51.460;7.252;2022-09-13T10:22:19;19.30;82.40
2042;DHT22;1026;51.460;7.252;2022-09-13T10:24:45;19.30;82.50
2042;DHT22;1026;51.460;7.252;2022-09-13T10:27:29;19.30;82.00
2042;DHT22;1026;51.460;7.252;2022-09-13T10:29:58;19.30;81.20
2042;DHT22;1026;51.460;7.252;2022-09-13T10:32:25;19.30;81.80
2042;DHT22;1026;51.460;7.252;2022-09-13T10:34:53;19.40;82.00
2042;DHT22;1026;51.460;7.252;2022-09-13T10:37:24;19.40;81.80
2042;DHT22;1026;51.460;7.252;2022-09-13T10:39:58;19.40;81.90
2042;DHT22;1026;51.460;7.252;2022-09-13T10:42:27;19.40;82.00
2042;DHT22;1026;51.460;7.252;2022-09-13T10:44:58;19.50;80.80
2042;DHT22;1026;51.460;7.252;2022-09-13T10:47:31;19.50;81.30
2042;DHT22;1026;51.460;7.252;2022-09-13T10:52:53;19.50;82.30
2042;DHT22;1026;51.460;7.252;2022-09-13T10:57:47;19.60;81.70
2042;DHT22;1026;51.460;7.252;2022-09-13T11:00:18;19.60;81.60
2042;DHT22;1026;51.460;7.252;2022-09-13T11:06:01;19.70;81.70
2042;DHT22;1026;51.460;7.252;2022-09-13T11:33:12;19.90;81.10
2042;DHT22;1026;51.460;7.252;2022-09-13T11:38:50;20.00;79.90
2042;DHT22;1026;51.460;7.252;2022-09-13T11:41:31;19.90;80.30
2042;DHT22;1026;51.460;7.252;2022-09-13T11:44:15;20.00;80.00
2042;DHT22;1026;51.460;7.252;2022-09-13T11:47:08;20.10;80.00
2042;DHT22;1026;51.460;7.252;2022-09-13T11:55:34;20.10;79.30
2042;DHT22;1026;51.460;7.252;2022-09-13T11:58:04;20.20;79.80
2042;DHT22;1026;51.460;7.252;2022-09-13T12:00:44;20.30;80.00
2042;DHT22;1026;51.460;7.252;2022-09-13T12:05:56;20.40;78.90
2042;DHT22;1026;51.460;7.252;2022-09-13T12:08:28;20.40;79.30
2042;DHT22;1026;51.460;7.252;2022-09-13T12:11:02;20.40;79.00
2042;DHT22;1026;51.460;7.252;2022-09-13T12:13:44;20.40;79.50
2042;DHT22;1026;51.460;7.252;2022-09-13T12:16:16;20.40;79.10
2042;DHT22;1026;51.460;7.252;2022-09-13T12:18:47;20.50;79.20
2042;DHT22;1026;51.460;7.252;2022-09-13T12:21:16;20.50;79.60
2042;DHT22;1026;51.460;7.252;2022-09-13T12:23:49;20.50;79.80
2042;DHT22;1026;51.460;7.252;2022-09-13T12:31:57;20.50;79.50
2042;DHT22;1026;51.460;7.252;2022-09-13T12:34:30;20.60;79.70
2042;DHT22;1026;51.460;7.252;2022-09-13T12:42:18;20.70;79.60
2042;DHT22;1026;51.460;7.252;2022-09-13T12:44:57;20.70;79.80
2042;DHT22;1026;51.460;7.252;2022-09-13T12:50:09;20.80;79.70
2042;DHT22;1026;51.460;7.252;2022-09-13T12:52:39;20.80;80.00
2042;DHT22;1026;51.460;7.252;2022-09-13T12:55:17;20.80;79.50
2042;DHT22;1026;51.460;7.252;2022-09-13T13:00:41;21.00;79.30
2042;DHT22;1026;51.460;7.252;2022-09-13T13:05:40;20.90;78.60
2042;DHT22;1026;51.460;7.252;2022-09-13T13:08:26;21.00;78.10
2042;DHT22;1026;51.460;7.252;2022-09-13T13:11:11;21.00;77.30
2042;DHT22;1026;51.460;7.252;2022-09-13T13:13:51;21.00;78.20
2042;DHT22;1026;51.460;7.252;2022-09-13T13:16:34;21.10;78.30
2042;DHT22;1026;51.460;7.252;2022-09-13T13:19:03;21.10;77.30
2042;DHT22;1026;51.460;7.252;2022-09-13T13:21:34;21.20;77.40
2042;DHT22;1026;51.460;7.252;2022-09-13T13:32:04;21.30;78.00
2042;DHT22;1026;51.460;7.252;2022-09-13T13:34:48;21.30;77.50
2042;DHT22;1026;51.460;7.252;2022-09-13T13:39:45;21.40;78.20
2042;DHT22;1026;51.460;7.252;2022-09-13T13:42:27;21.40;78.00
2042;DHT22;1026;51.460;7.252;2022-09-13T13:52:35;21.50;77.70
2042;DHT22;1026;51.460;7.252;2022-09-13T13:58:28;21.50;78.10
2042;DHT22;1026;51.460;7.252;2022-09-13T14:00:55;21.50;78.60
2042;DHT22;1026;51.460;7.252;2022-09-13T14:03:40;21.60;78.10
2042;DHT22;1026;51.460;7.252;2022-09-13T14:06:18;21.60;78.40
2042;DHT22;1026;51.460;7.252;2022-09-13T14:09:04;21.60;76.90
2042;DHT22;1026;51.460;7.252;2022-09-13T14:11:52;21.60;77.30
2042;DHT22;1026;51.460;7.252;2022-09-13T14:15:27;21.70;76.80
2042;DHT22;1026;51.460;7.252;2022-09-13T14:19:49;21.70;76.70
2042;DHT22;1026;51.460;7.252;2022-09-13T14:24:48;21.80;76.50
2042;DHT22;1026;51.460;7.252;2022-09-13T14:27:18;21.80;77.20
2042;DHT22;1026;51.460;7.252;2022-09-13T14:29:47;21.80;77.00
2042;DHT22;1026;51.460;7.252;2022-09-13T14:32:16;21.90;76.90
2042;DHT22;1026;51.460;7.252;2022-09-13T14:34:59;21.90;77.20
2042;DHT22;1026;51.460;7.252;2022-09-13T14:37:29;21.90;77.30
2042;DHT22;1026;51.460;7.252;2022-09-13T14:39:57;22.00;78.00
2042;DHT22;1026;51.460;7.252;2022-09-13T14:42:23;22.00;77.40
2042;DHT22;1026;51.460;7.252;2022-09-13T14:44:49;22.00;77.40
2042;DHT22;1026;51.460;7.252;2022-09-13T14:47:40;22.10;77.60
2042;DHT22;1026;51.460;7.252;2022-09-13T14:50:15;22.10;77.50
2042;DHT22;1026;51.460;7.252;2022-09-13T14:55:14;22.10;77.40
2042;DHT22;1026;51.460;7.252;2022-09-13T14:57:45;22.20;77.10
2042;DHT22;1026;51.460;7.252;2022-09-13T15:02:38;22.20;76.10
2042;DHT22;1026;51.460;7.252;2022-09-13T15:05:12;22.10;76.50
2042;DHT22;1026;51.460;7.252;2022-09-13T15:07:39;22.10;76.10
2042;DHT22;1026;51.460;7.252;2022-09-13T15:10:07;22.20;77.10
2042;DHT22;1026;51.460;7.252;2022-09-13T15:12:34;22.20;77.70
2042;DHT22;1026;51.460;7.252;2022-09-13T15:17:58;22.20;77.40
2042;DHT22;1026;51.460;7.252;2022-09-13T15:20:27;22.20;77.70
2042;DHT22;1026;51.460;7.252;2022-09-13T15:22:54;22.20;77.40
2042;DHT22;1026;51.460;7.252;2022-09-13T15:25:24;22.20;77.10
2042;DHT22;1026;51.460;7.252;2022-09-13T15:27:51;22.20;76.60
2042;DHT22;1026;51.460;7.252;2022-09-13T15:30:38;22.20;76.60
2042;DHT22;1026;51.460;7.252;2022-09-13T15:36:14;22.30;77.00
2042;DHT22;1026;51.460;7.252;2022-09-13T15:39:12;22.30;76.80
2042;DHT22;1026;51.460;7.252;2022-09-13T15:44:17;22.30;76.90
2042;DHT22;1026;51.460;7.252;2022-09-13T15:46:46;22.30;77.10
2042;DHT22;1026;51.460;7.252;2022-09-13T15:49:15;22.30;78.90
2042;DHT22;1026;51.460;7.252;2022-09-13T15:51:43;22.30;78.30
2042;DHT22;1026;51.460;7.252;2022-09-13T15:54:11;22.30;77.50
2042;DHT22;1026;51.460;7.252;2022-09-13T15:56:43;22.30;77.20
2042;DHT22;1026;51.460;7.252;2022-09-13T15:59:13;22.30;78.80
2042;DHT22;1026;51.460;7.252;2022-09-13T16:01:41;22.30;78.10
2042;DHT22;1026;51.460;7.252;2022-09-13T16:04:07;22.30;78.50
2042;DHT22;1026;51.460;7.252;2022-09-13T16:06:33;22.30;77.80
2042;DHT22;1026;51.460;7.252;2022-09-13T16:08:59;22.40;77.70
2042;DHT22;1026;51.460;7.252;2022-09-13T16:11:26;22.40;77.60
2042;DHT22;1026;51.460;7.252;2022-09-13T16:13:52;22.40;77.90
2042;DHT22;1026;51.460;7.252;2022-09-13T16:16:17;22.30;78.30
2042;DHT22;1026;51.460;7.252;2022-09-13T16:18:43;22.40;77.20
2042;DHT22;1026;51.460;7.252;2022-09-13T16:21:09;22.40;78.90
2042;DHT22;1026;51.460;7.252;2022-09-13T16:23:35;22.40;78.00
2042;DHT22;1026;51.460;7.252;2022-09-13T16:26:01;22.40;77.30
2042;DHT22;1026;51.460;7.252;2022-09-13T16:28:28;22.40;77.20
2042;DHT22;1026;51.460;7.252;2022-09-13T16:30:54;22.40;76.90
2042;DHT22;1026;51.460;7.252;2022-09-13T16:33:20;22.30;77.20
2042;DHT22;1026;51.460;7.252;2022-09-13T16:35:45;22.40;77.20
2042;DHT22;1026;51.460;7.252;2022-09-13T16:38:12;22.40;78.40
2042;DHT22;1026;51.460;7.252;2022-09-13T16:40:39;22.40;78.80
2042;DHT22;1026;51.460;7.252;2022-09-13T16:43:06;22.40;77.60
2042;DHT22;1026;51.460;7.252;2022-09-13T16:45:32;22.40;78.90
2042;DHT22;1026;51.460;7.252;2022-09-13T16:47:57;22.40;79.90
2042;DHT22;1026;51.460;7.252;2022-09-13T16:50:23;22.30;78.80
2042;DHT22;1026;51.460;7.252;2022-09-13T16:52:49;22.40;80.40
2042;DHT22;1026;51.460;7.252;2022-09-13T16:55:15;22.40;78.70
2042;DHT22;1026;51.460;7.252;2022-09-13T16:57:40;22.40;80.40
2042;DHT22;1026;51.460;7.252;2022-09-13T17:00:08;22.40;78.50
2042;DHT22;1026;51.460;7.252;2022-09-13T17:02:36;22.40;77.90
2042;DHT22;1026;51.460;7.252;2022-09-13T17:05:02;22.40;79.20
2042;DHT22;1026;51.460;7.252;2022-09-13T17:07:30;22.40;78.80
2042;DHT22;1026;51.460;7.252;2022-09-13T17:09:56;22.40;78.10
2042;DHT22;1026;51.460;7.252;2022-09-13T17:12:21;22.40;79.80
2042;DHT22;1026;51.460;7.252;2022-09-13T17:14:47;22.40;80.10
2042;DHT22;1026;51.460;7.252;2022-09-13T17:17:16;22.40;79.80
2042;DHT22;1026;51.460;7.252;2022-09-13T17:19:42;22.40;79.80
2042;DHT22;1026;51.460;7.252;2022-09-13T17:22:09;22.40;78.80
2042;DHT22;1026;51.460;7.252;2022-09-13T17:24:36;22.40;79.00
2042;DHT22;1026;51.460;7.252;2022-09-13T17:27:03;22.40;80.10
2042;DHT22;1026;51.460;7.252;2022-09-13T17:29:31;22.30;80.20
2042;DHT22;1026;51.460;7.252;2022-09-13T17:31:58;22.40;79.20
2042;DHT22;1026;51.460;7.252;2022-09-13T17:34:25;22.30;79.90
2042;DHT22;1026;51.460;7.252;2022-09-13T17:36:51;22.40;79.70
2042;DHT22;1026;51.460;7.252;2022-09-13T17:39:17;22.30;79.60
2042;DHT22;1026;51.460;7.252;2022-09-13T17:41:43;22.30;78.80
2042;DHT22;1026;51.460;7.252;2022-09-13T17:44:08;22.30;78.80
2042;DHT22;1026;51.460;7.252;2022-09-13T17:46:36;22.30;79.40
2042;DHT22;1026;51.460;7.252;2022-09-13T17:49:03;22.30;79.30
2042;DHT22;1026;51.460;7.252;2022-09-13T17:51:31;22.30;79.40
2042;DHT22;1026;51.460;7.252;2022-09-13T17:53:58;22.30;78.80
2042;DHT22;1026;51.460;7.252;2022-09-13T17:56:27;22.30;79.10
2042;DHT22;1026;51.460;7.252;2022-09-13T17:58:55;22.30;79.50
2042;DHT22;1026;51.460;7.252;2022-09-13T18:01:21;22.30;79.20
2042;DHT22;1026;51.460;7.252;2022-09-13T18:03:46;22.30;79.20
2042;DHT22;1026;51.460;7.252;2022-09-13T18:06:12;22.30;79.10
2042;DHT22;1026;51.460;7.252;2022-09-13T18:08:40;22.30;79.60
2042;DHT22;1026;51.460;7.252;2022-09-13T18:11:10;22.30;79.30
2042;DHT22;1026;51.460;7.252;2022-09-13T18:13:37;22.30;78.20
2042;DHT22;1026;51.460;7.252;2022-09-13T18:16:06;22.30;79.40
2042;DHT22;1026;51.460;7.252;2022-09-13T18:18:34;22.30;78.60
2042;DHT22;1026;51.460;7.252;2022-09-13T18:21:00;22.20;78.80
2042;DHT22;1026;51.460;7.252;2022-09-13T18:23:25;22.30;79.50
2042;DHT22;1026;51.460;7.252;2022-09-13T18:26:09;22.30;79.60
2042;DHT22;1026;51.460;7.252;2022-09-13T18:28:35;22.20;80.10
2042;DHT22;1026;51.460;7.252;2022-09-13T18:31:03;22.10;79.10
2042;DHT22;1026;51.460;7.252;2022-09-13T18:33:31;22.20;78.90
2042;DHT22;1026;51.460;7.252;2022-09-13T18:36:07;22.20;78.10
2042;DHT22;1026;51.460;7.252;2022-09-13T18:38:37;22.20;79.00
2042;DHT22;1026;51.460;7.252;2022-09-13T18:41:09;22.20;77.90
2042;DHT22;1026;51.460;7.252;2022-09-13T18:43:36;22.20;77.70
2042;DHT22;1026;51.460;7.252;2022-09-13T18:46:05;22.20;78.60
2042;DHT22;1026;51.460;7.252;2022-09-13T18:48:33;22.20;79.20
2042;DHT22;1026;51.460;7.252;2022-09-13T18:50:59;22.20;79.20
2042;DHT22;1026;51.460;7.252;2022-09-13T18:53:26;22.20;79.30
2042;DHT22;1026;51.460;7.252;2022-09-13T18:55:52;22.20;79.00
2042;DHT22;1026;51.460;7.252;2022-09-13T18:58:21;22.20;79.80
2042;DHT22;1026;51.460;7.252;2022-09-13T19:00:46;22.20;78.50
2042;DHT22;1026;51.460;7.252;2022-09-13T19:03:12;22.20;77.70
2042;DHT22;1026;51.460;7.252;2022-09-13T19:05:38;22.10;78.20
2042;DHT22;1026;51.460;7.252;2022-09-13T19:08:08;22.20;77.70
2042;DHT22;1026;51.460;7.252;2022-09-13T19:10:36;22.20;78.40
2042;DHT22;1026;51.460;7.252;2022-09-13T19:13:03;22.10;78.20
2042;DHT22;1026;51.460;7.252;2022-09-13T19:15:30;22.10;78.20
2042;DHT22;1026;51.460;7.252;2022-09-13T19:17:55;22.10;77.90